sensor_id;sensor_type;location;lat;lon;timestamp;pressure;altitude;pressure_sealevel;temperature;humidity
62976;BME280;49071;0.000;0.000;2022-09-06T05:59:45;101607.09;;;21.69;37.35
62976;BME280;49071;0.000;0.000;2022-09-06T06:02:46;101606.00;;;21.66;37.68
62976;BME280;49071;0.000;0.000;2022-09-06T06:05:46;101602.88;;;21.64;37.85
62976;BME280;49071;0.000;0.000;2022-09-06T06:08:47;101604.13;;;21.63;37.98
62976;BME280;49071;0.000;0.000;2022-09-06T06:11:47;101600.06;;;21.64;37.65
62976;BME280;49071;0.000;0.000;2022-09-06T06:14:47;101597.25;;;21.64;37.71
62976;BME280;49071;0.000;0.000;2022-09-06T06:17:48;101597.56;;;21.66;37.92
62976;BME280;49071;0.000;0.000;2022-09-06T06:20:49;101597.25;;;21.64;37.82
62976;BME280;49071;0.000;0.000;2022-09-06T06:23:51;101598.50;;;21.63;38.23
62976;BME280;49071;0.000;0.000;2022-09-06T06:26:52;101602.75;;;21.68;38.18
62976;BME280;49071;0.000;0.000;2022-09-06T06:29:52;101596.94;;;21.71;38.27
62976;BME280;49071;0.000;0.000;2022-09-06T06:32:52;101601.50;;;21.78;37.91
62976;BME280;49071;0.000;0.000;2022-09-06T06:35:56;101586.81;;;21.83;38.11
62976;BME280;49071;0.000;0.000;2022-09-06T06:38:57;101589.63;;;21.83;37.99
62976;BME280;49071;0.000;0.000;2022-09-06T06:41:57;101575.41;;;21.78;38.16
62976;BME280;49071;0.000;0.000;2022-09-06T06:44:57;101580.72;;;21.76;37.96
62976;BME280;49071;0.000;0.000;2022-09-06T06:47:58;101568.69;;;21.75;38.04
62976;BME280;49071;0.000;0.000;2022-09-06T06:50:58;101569.94;;;21.83;38.08
62976;BME280;49071;0.000;0.000;2022-09-06T06:53:58;101575.09;;;21.85;38.16
62976;BME280;49071;0.000;0.000;2022-09-06T06:56:58;101575.72;;;21.80;37.94
62976;BME280;49071;0.000;0.000;2022-09-06T06:59:59;101573.22;;;21.82;38.18
62976;BME280;49071;0.000;0.000;2022-09-06T07:02:59;101566.97;;;21.78;37.93
62976;BME280;49071;0.000;0.000;2022-09-06T07:05:59;101570.69;;;21.74;37.95
62976;BME280;49071;0.000;0.000;2022-09-06T07:09:00;101569.16;;;21.73;37.76
62976;BME280;49071;0.000;0.000;2022-09-06T07:12:00;101565.56;;;21.73;37.78
62976;BME280;49071;0.000;0.000;2022-09-06T07:15:00;101567.13;;;21.74;37.62
62976;BME280;49071;0.000;0.000;2022-09-06T07:18:00;101570.09;;;21.80;37.67
62976;BME280;49071;0.000;0.000;2022-09-06T07:21:01;101567.59;;;21.82;37.60
62976;BME280;49071;0.000;0.000;2022-09-06T07:24:01;101573.22;;;21.82;37.87
62976;BME280;49071;0.000;0.000;2022-09-06T07:27:01;101573.06;;;21.85;37.82
62976;BME280;49071;0.000;0.000;2022-09-06T07:30:02;101559.00;;;21.85;37.54
62976;BME280;49071;0.000;0.000;2022-09-06T07:33:02;101571.34;;;21.88;37.52
62976;BME280;49071;0.000;0.000;2022-09-06T07:36:05;101568.84;;;21.90;37.61
62976;BME280;49071;0.000;0.000;2022-09-06T07:39:05;101573.06;;;21.94;37.59
62976;BME280;49071;0.000;0.000;2022-09-06T07:42:06;101566.97;;;21.96;37.73
62976;BME280;49071;0.000;0.000;2022-09-06T07:45:06;101568.53;;;21.97;37.63
62976;BME280;49071;0.000;0.000;2022-09-06T07:48:07;101574.16;;;21.97;37.72
62976;BME280;49071;0.000;0.000;2022-09-06T07:51:11;101572.13;;;21.98;37.57
62976;BME280;49071;0.000;0.000;2022-09-06T07:54:12;101569.00;;;21.95;37.52
62976;BME280;49071;0.000;0.000;2022-09-06T07:57:12;101575.41;;;21.96;37.93
62976;BME280;49071;0.000;0.000;2022-09-06T08:00:13;101572.13;;;21.98;37.90
62976;BME280;49071;0.000;0.000;2022-09-06T08:03:13;101574.16;;;21.97;37.71
62976;BME280;49071;0.000;0.000;2022-09-06T08:06:13;101571.81;;;21.95;37.51
62976;BME280;49071;0.000;0.000;2022-09-06T08:09:13;101566.97;;;21.96;37.53
62976;BME280;49071;0.000;0.000;2022-09-06T08:12:14;101564.94;;;21.97;37.42
62976;BME280;49071;0.000;0.000;2022-09-06T08:15:14;101572.00;;;22.01;37.59
62976;BME280;49071;0.000;0.000;2022-09-06T08:18:14;101565.09;;;22.02;37.48
62976;BME280;49071;0.000;0.000;2022-09-06T08:21:15;101576.34;;;22.02;37.57
62976;BME280;49071;0.000;0.000;2022-09-06T08:24:15;101573.84;;;21.67;37.34
62976;BME280;49071;0.000;0.000;2022-09-06T08:27:15;101575.53;;;21.46;36.39
62976;BME280;49071;0.000;0.000;2022-09-06T08:30:16;101564.66;;;21.17;36.52
62976;BME280;49071;0.000;0.000;2022-09-06T08:33:16;101572.00;;;21.33;36.39
62976;BME280;49071;0.000;0.000;2022-09-06T08:36:20;101562.00;;;21.23;35.88
62976;BME280;49071;0.000;0.000;2022-09-06T08:39:21;101564.00;;;21.13;36.24
62976;BME280;49071;0.000;0.000;2022-09-06T08:42:21;101571.78;;;21.00;36.34
62976;BME280;49071;0.000;0.000;2022-09-06T08:45:21;101573.38;;;21.10;36.13
62976;BME280;49071;0.000;0.000;2022-09-06T08:48:26;101566.16;;;21.09;36.42
62976;BME280;49071;0.000;0.000;2022-09-06T09:00:32;101564.28;;;21.06;36.64
62976;BME280;49071;0.000;0.000;2022-09-06T09:03:35;101555.44;;;21.17;36.81
62976;BME280;49071;0.000;0.000;2022-09-06T09:06:35;101545.44;;;21.16;36.43
62976;BME280;49071;0.000;0.000;2022-09-06T09:09:37;101545.53;;;20.94;36.41
62976;BME280;49071;0.000;0.000;2022-09-06T09:12:40;101551.81;;;21.07;36.70
62976;BME280;49071;0.000;0.000;2022-09-06T09:15:42;101547.41;;;20.97;36.64
62976;BME280;49071;0.000;0.000;2022-09-06T09:18:44;101543.25;;;21.10;36.57
62976;BME280;49071;0.000;0.000;2022-09-06T09:21:45;101539.09;;;21.34;36.59
62976;BME280;49071;0.000;0.000;2022-09-06T09:24:46;101540.22;;;21.45;36.44
62976;BME280;49071;0.000;0.000;2022-09-06T09:27:47;101534.47;;;21.49;36.55
62976;BME280;49071;0.000;0.000;2022-09-06T09:30:56;101535.56;;;21.51;36.19
62976;BME280;49071;0.000;0.000;2022-09-06T09:33:56;101522.56;;;21.45;36.71
62976;BME280;49071;0.000;0.000;2022-09-06T09:41:01;101518.53;;;21.55;36.51
62976;BME280;49071;0.000;0.000;2022-09-06T09:43:41;101523.22;;;21.58;36.68
62976;BME280;49071;0.000;0.000;2022-09-06T09:46:53;101506.69;;;21.60;36.97
62976;BME280;49071;0.000;0.000;2022-09-06T09:49:53;101506.19;;;21.62;36.80
62976;BME280;49071;0.000;0.000;2022-09-06T09:52:54;101500.13;;;21.63;37.02
62976;BME280;49071;0.000;0.000;2022-09-06T09:55:55;101497.31;;;21.63;37.16
62976;BME280;49071;0.000;0.000;2022-09-06T09:58:56;101490.41;;;21.64;37.14
62976;BME280;49071;0.000;0.000;2022-09-06T10:01:58;101491.81;;;21.69;36.90
62976;BME280;49071;0.000;0.000;2022-09-06T10:05:04;101488.88;;;21.72;37.02
62976;BME280;49071;0.000;0.000;2022-09-06T10:08:08;101483.53;;;21.74;37.16
62976;BME280;49071;0.000;0.000;2022-09-06T10:11:12;101466.97;;;21.77;37.31
62976;BME280;49071;0.000;0.000;2022-09-06T10:14:24;101470.59;;;21.77;37.73
62976;BME280;49071;0.000;0.000;2022-09-06T10:17:29;101458.53;;;21.77;37.37
62976;BME280;49071;0.000;0.000;2022-09-06T10:24:07;101471.50;;;21.74;37.69
62976;BME280;49071;0.000;0.000;2022-09-06T10:27:10;101466.66;;;21.74;37.68
62976;BME280;49071;0.000;0.000;2022-09-06T10:30:11;101469.78;;;21.77;37.66
62976;BME280;49071;0.000;0.000;2022-09-06T10:39:46;101466.19;;;21.76;37.75
62976;BME280;49071;0.000;0.000;2022-09-06T10:42:49;101473.88;;;21.76;38.05
62976;BME280;49071;0.000;0.000;2022-09-06T10:45:58;101472.28;;;21.74;37.74
62976;BME280;49071;0.000;0.000;2022-09-06T10:49:01;101473.09;;;21.75;38.04
62976;BME280;49071;0.000;0.000;2022-09-06T10:52:01;101458.53;;;21.77;38.11
62976;BME280;49071;0.000;0.000;2022-09-06T10:55:03;101454.50;;;21.78;37.87
62976;BME280;49071;0.000;0.000;2022-09-06T10:58:05;101459.34;;;21.77;38.14
62976;BME280;49071;0.000;0.000;2022-09-06T11:01:05;101462.94;;;21.78;38.05
62976;BME280;49071;0.000;0.000;2022-09-06T11:04:07;101456.53;;;21.77;38.16
62976;BME280;49071;0.000;0.000;2022-09-06T11:07:17;101448.56;;;21.76;38.18
62976;BME280;49071;0.000;0.000;2022-09-06T11:10:26;101449.78;;;21.74;38.37
62976;BME280;49071;0.000;0.000;2022-09-06T11:13:29;101451.38;;;21.76;38.14
62976;BME280;49071;0.000;0.000;2022-09-06T11:16:30;101447.78;;;21.75;38.36
62976;BME280;49071;0.000;0.000;2022-09-06T11:19:38;101441.34;;;21.74;38.37
62976;BME280;49071;0.000;0.000;2022-09-06T11:22:43;101446.53;;;21.76;38.50
62976;BME280;49071;0.000;0.000;2022-09-06T11:29:00;101437.63;;;21.78;38.37
62976;BME280;49071;0.000;0.000;2022-09-06T11:32:02;101429.19;;;21.78;38.54
62976;BME280;49071;0.000;0.000;2022-09-06T11:35:07;101422.78;;;21.77;38.48
62976;BME280;49071;0.000;0.000;2022-09-06T11:41:14;101425.28;;;21.75;38.53
62976;BME280;49071;0.000;0.000;2022-09-06T11:44:49;101422.47;;;21.75;38.64
62976;BME280;49071;0.000;0.000;2022-09-06T11:47:39;101417.63;;;21.76;38.79
62976;BME280;49071;0.000;0.000;2022-09-06T11:57:15;101402.31;;;21.77;38.89
62976;BME280;49071;0.000;0.000;2022-09-06T12:00:20;101397.16;;;21.75;39.09
62976;BME280;49071;0.000;0.000;2022-09-06T12:06:42;101392.13;;;21.79;38.92
62976;BME280;49071;0.000;0.000;2022-09-06T12:22:54;101401.84;;;21.78;39.22
62976;BME280;49071;0.000;0.000;2022-09-06T12:25:55;101399.81;;;21.79;39.09
62976;BME280;49071;0.000;0.000;2022-09-06T12:28:55;101391.84;;;21.77;39.13
62976;BME280;49071;0.000;0.000;2022-09-06T12:31:57;101383.41;;;21.77;39.08
62976;BME280;49071;0.000;0.000;2022-09-06T12:34:59;101392.63;;;21.78;39.02
62976;BME280;49071;0.000;0.000;2022-09-06T12:38:02;101388.56;;;21.79;38.97
62976;BME280;49071;0.000;0.000;2022-09-06T12:41:02;101383.72;;;21.79;39.07
62976;BME280;49071;0.000;0.000;2022-09-06T12:44:03;101373.25;;;21.80;39.20
62976;BME280;49071;0.000;0.000;2022-09-06T12:47:05;101378.88;;;21.80;39.21
62976;BME280;49071;0.000;0.000;2022-09-06T12:50:20;101390.91;;;21.80;39.21
62976;BME280;49071;0.000;0.000;2022-09-06T12:53:21;101383.25;;;21.81;39.21
62976;BME280;49071;0.000;0.000;2022-09-06T12:56:26;101380.44;;;21.81;39.15
62976;BME280;49071;0.000;0.000;2022-09-06T12:59:26;101378.09;;;21.79;39.45
62976;BME280;49071;0.000;0.000;2022-09-06T13:02:34;101375.28;;;21.79;39.33
62976;BME280;49071;0.000;0.000;2022-09-06T13:05:38;101378.88;;;21.80;39.27
62976;BME280;49071;0.000;0.000;2022-09-06T13:08:41;101368.09;;;21.78;39.43
62976;BME280;49071;0.000;0.000;2022-09-06T13:11:48;101366.06;;;21.79;39.46
62976;BME280;49071;0.000;0.000;2022-09-06T13:14:53;101359.66;;;21.78;39.38
62976;BME280;49071;0.000;0.000;2022-09-06T13:18:11;101356.06;;;21.78;39.50
62976;BME280;49071;0.000;0.000;2022-09-06T13:21:31;101357.63;;;21.79;39.62
62976;BME280;49071;0.000;0.000;2022-09-06T13:27:35;101353.25;;;21.78;39.40
62976;BME280;49071;0.000;0.000;2022-09-06T13:30:39;101347.63;;;21.78;39.59
62976;BME280;49071;0.000;0.000;2022-09-06T13:33:44;101349.19;;;21.79;39.53
62976;BME280;49071;0.000;0.000;2022-09-06T13:36:54;101347.63;;;21.78;39.65
62976;BME280;49071;0.000;0.000;2022-09-06T13:39:58;101343.56;;;21.79;39.78
62976;BME280;49071;0.000;0.000;2022-09-06T13:42:59;101346.88;;;21.77;39.85
62976;BME280;49071;0.000;0.000;2022-09-06T13:46:06;101338.44;;;21.77;39.58
62976;BME280;49071;0.000;0.000;2022-09-06T13:49:07;101342.78;;;21.78;39.90
62976;BME280;49071;0.000;0.000;2022-09-06T13:52:07;101335.13;;;21.79;39.62
62976;BME280;49071;0.000;0.000;2022-09-06T13:55:08;101342.78;;;21.78;39.52
62976;BME280;49071;0.000;0.000;2022-09-06T13:58:10;101339.22;;;21.78;39.73
62976;BME280;49071;0.000;0.000;2022-09-06T14:01:11;101346.88;;;21.77;39.96
62976;BME280;49071;0.000;0.000;2022-09-06T14:04:13;101344.06;;;21.77;39.78
62976;BME280;49071;0.000;0.000;2022-09-06T14:07:14;101347.63;;;21.78;39.93
62976;BME280;49071;0.000;0.000;2022-09-06T14:10:14;101344.06;;;21.77;39.99
62976;BME280;49071;0.000;0.000;2022-09-06T14:13:15;101348.88;;;21.77;39.83
62976;BME280;49071;0.000;0.000;2022-09-06T14:16:15;101346.88;;;21.77;39.90
62976;BME280;49071;0.000;0.000;2022-09-06T14:19:16;101341.25;;;21.77;39.82
62976;BME280;49071;0.000;0.000;2022-09-06T14:22:16;101342.78;;;21.78;40.11
62976;BME280;49071;0.000;0.000;2022-09-06T14:25:16;101329.81;;;21.81;39.96
62976;BME280;49071;0.000;0.000;2022-09-06T14:28:16;101322.91;;;21.82;39.88
62976;BME280;49071;0.000;0.000;2022-09-06T14:31:20;101316.84;;;21.83;40.06
62976;BME280;49071;0.000;0.000;2022-09-06T14:34:21;101311.97;;;21.84;40.01
62976;BME280;49071;0.000;0.000;2022-09-06T14:37:21;101312.78;;;21.84;39.87
62976;BME280;49071;0.000;0.000;2022-09-06T14:40:22;101309.66;;;21.82;40.02
62976;BME280;49071;0.000;0.000;2022-09-06T14:43:22;101308.88;;;21.82;39.84
62976;BME280;49071;0.000;0.000;2022-09-06T14:46:23;101306.84;;;21.82;39.93
62976;BME280;49071;0.000;0.000;2022-09-06T14:49:24;101314.03;;;21.83;40.09
62976;BME280;49071;0.000;0.000;2022-09-06T14:52:24;101305.59;;;21.83;40.12
62976;BME280;49071;0.000;0.000;2022-09-06T14:55:24;101306.84;;;21.82;39.96
62976;BME280;49071;0.000;0.000;2022-09-06T14:58:28;101303.25;;;21.82;40.35
62976;BME280;49071;0.000;0.000;2022-09-06T15:01:30;101308.88;;;21.82;40.45
62976;BME280;49071;0.000;0.000;2022-09-06T15:04:31;101304.81;;;21.83;39.95
62976;BME280;49071;0.000;0.000;2022-09-06T15:07:32;101303.25;;;21.82;40.40
62976;BME280;49071;0.000;0.000;2022-09-06T15:10:32;101291.22;;;21.81;40.38
62976;BME280;49071;0.000;0.000;2022-09-06T15:13:35;101289.19;;;21.82;40.35
62976;BME280;49071;0.000;0.000;2022-09-06T15:16:36;101286.38;;;21.82;40.31
62976;BME280;49071;0.000;0.000;2022-09-06T15:19:36;101277.16;;;21.81;40.35
62976;BME280;49071;0.000;0.000;2022-09-06T15:22:37;101278.88;;;21.79;40.35
62976;BME280;49071;0.000;0.000;2022-09-06T15:25:43;101285.59;;;21.81;40.34
62976;BME280;49071;0.000;0.000;2022-09-06T15:28:44;101278.25;;;21.84;40.41
62976;BME280;49071;0.000;0.000;2022-09-06T15:31:44;101282.31;;;21.83;40.22
62976;BME280;49071;0.000;0.000;2022-09-06T15:34:49;101281.06;;;21.84;40.17
62976;BME280;49071;0.000;0.000;2022-09-06T15:37:49;101287.94;;;21.83;40.41
62976;BME280;49071;0.000;0.000;2022-09-06T15:40:49;101283.88;;;21.84;40.31
62976;BME280;49071;0.000;0.000;2022-09-06T15:43:51;101296.69;;;21.85;40.50
62976;BME280;49071;0.000;0.000;2022-09-06T15:46:53;101280.75;;;21.82;40.58
62976;BME280;49071;0.000;0.000;2022-09-06T15:49:53;101279.81;;;21.85;40.46
62976;BME280;49071;0.000;0.000;2022-09-06T15:52:54;101276.69;;;21.83;40.51
62976;BME280;49071;0.000;0.000;2022-09-06T15:55:57;101268.25;;;21.83;40.25
62976;BME280;49071;0.000;0.000;2022-09-06T15:58:58;101274.19;;;21.85;40.33
62976;BME280;49071;0.000;0.000;2022-09-06T16:01:58;101269.03;;;21.83;40.29
62976;BME280;49071;0.000;0.000;2022-09-06T16:04:59;101260.59;;;21.83;40.39
62976;BME280;49071;0.000;0.000;2022-09-06T16:07:59;101264.19;;;21.84;40.45
62976;BME280;49071;0.000;0.000;2022-09-06T16:10:59;101255.75;;;21.84;40.37
62976;BME280;49071;0.000;0.000;2022-09-06T16:14:05;101255.75;;;21.84;40.40
62976;BME280;49071;0.000;0.000;2022-09-06T16:17:05;101243.56;;;21.87;40.83
62976;BME280;49071;0.000;0.000;2022-09-06T16:20:06;101242.91;;;21.92;41.06
62976;BME280;49071;0.000;0.000;2022-09-06T16:23:06;101244.16;;;21.91;40.75
62976;BME280;49071;0.000;0.000;2022-09-06T16:26:07;101244.16;;;21.91;41.01
62976;BME280;49071;0.000;0.000;2022-09-06T16:29:12;101248.22;;;21.90;41.04
62976;BME280;49071;0.000;0.000;2022-09-06T16:32:12;101250.06;;;21.93;41.17
62976;BME280;49071;0.000;0.000;2022-09-06T16:35:12;101240.09;;;21.92;40.83
62976;BME280;49071;0.000;0.000;2022-09-06T16:38:13;101242.59;;;21.90;40.87
62976;BME280;49071;0.000;0.000;2022-09-06T16:44:15;101238.22;;;21.89;40.81
62976;BME280;49071;0.000;0.000;2022-09-06T16:47:15;101240.09;;;21.92;40.77
62976;BME280;49071;0.000;0.000;2022-09-06T16:50:16;101237.28;;;21.92;40.78
62976;BME280;49071;0.000;0.000;2022-09-06T16:53:16;101237.28;;;21.92;40.83
62976;BME280;49071;0.000;0.000;2022-09-06T16:56:18;101241.19;;;21.94;41.31
62976;BME280;49071;0.000;0.000;2022-09-06T16:59:18;101238.66;;;21.97;40.94
62976;BME280;49071;0.000;0.000;2022-09-06T17:02:20;101235.84;;;21.97;41.20
62976;BME280;49071;0.000;0.000;2022-09-06T17:05:21;101232.25;;;21.96;41.04
62976;BME280;49071;0.000;0.000;2022-09-06T17:08:21;101232.75;;;21.94;41.33
62976;BME280;49071;0.000;0.000;2022-09-06T17:11:21;101239.13;;;21.95;41.49
62976;BME280;49071;0.000;0.000;2022-09-06T17:14:22;101234.59;;;21.98;41.35
62976;BME280;49071;0.000;0.000;2022-09-06T17:17:22;101232.75;;;21.94;41.24
62976;BME280;49071;0.000;0.000;2022-09-06T17:20:22;101237.59;;;21.94;41.03
62976;BME280;49071;0.000;0.000;2022-09-06T17:23:23;101227.13;;;21.94;41.09
62976;BME280;49071;0.000;0.000;2022-09-06T17:26:23;101235.06;;;21.96;41.22
62976;BME280;49071;0.000;0.000;2022-09-06T17:29:23;101225.38;;;21.97;41.14
62976;BME280;49071;0.000;0.000;2022-09-06T17:32:26;101224.59;;;21.97;41.40
62976;BME280;49071;0.000;0.000;2022-09-06T17:35:27;101232.25;;;21.96;41.36
62976;BME280;49071;0.000;0.000;2022-09-06T17:38:27;101233.31;;;21.99;41.63
62976;BME280;49071;0.000;0.000;2022-09-06T17:41:29;101234.13;;;21.99;41.65
62976;BME280;49071;0.000;0.000;2022-09-06T17:44:31;101236.94;;;21.99;41.90
62976;BME280;49071;0.000;0.000;2022-09-06T17:47:32;101237.41;;;21.98;41.90
62976;BME280;49071;0.000;0.000;2022-09-06T17:50:33;101231.31;;;21.99;41.76
62976;BME280;49071;0.000;0.000;2022-09-06T17:53:34;101236.63;;;21.97;41.70
62976;BME280;49071;0.000;0.000;2022-09-06T17:56:35;101241.47;;;21.97;41.67
62976;BME280;49071;0.000;0.000;2022-09-06T17:59:35;101239.75;;;21.99;41.82
62976;BME280;49071;0.000;0.000;2022-09-06T18:02:37;101244.09;;;22.00;41.88
62976;BME280;49071;0.000;0.000;2022-09-06T18:05:37;101253.50;;;21.97;41.42
62976;BME280;49071;0.000;0.000;2022-09-06T18:08:39;101260.50;;;22.02;41.39
62976;BME280;49071;0.000;0.000;2022-09-06T18:11:40;101244.41;;;22.02;41.62
62976;BME280;49071;0.000;0.000;2022-09-06T18:14:40;101241.59;;;22.02;41.78
62976;BME280;49071;0.000;0.000;2022-09-06T18:17:40;101245.19;;;22.03;41.96
62976;BME280;49071;0.000;0.000;2022-09-06T18:20:41;101246.44;;;22.02;41.68
62976;BME280;49071;0.000;0.000;2022-09-06T18:23:41;101245.97;;;22.03;41.77
62976;BME280;49071;0.000;0.000;2022-09-06T18:26:42;101249.25;;;22.02;41.83
62976;BME280;49071;0.000;0.000;2022-09-06T18:29:42;101244.09;;;22.00;41.43
62976;BME280;49071;0.000;0.000;2022-09-06T18:32:42;101244.56;;;21.99;41.55
62976;BME280;49071;0.000;0.000;2022-09-06T18:35:43;101252.53;;;22.00;41.75
62976;BME280;49071;0.000;0.000;2022-09-06T18:38:44;101249.25;;;22.02;41.73
62976;BME280;49071;0.000;0.000;2022-09-06T18:41:44;101256.44;;;22.03;41.69
62976;BME280;49071;0.000;0.000;2022-09-06T18:45:06;101258.78;;;22.04;41.90
62976;BME280;49071;0.000;0.000;2022-09-06T18:48:06;101258.78;;;22.04;41.99
62976;BME280;49071;0.000;0.000;2022-09-06T18:54:07;101258.47;;;22.02;42.12
62976;BME280;49071;0.000;0.000;2022-09-06T18:57:10;101244.41;;;22.02;42.08
62976;BME280;49071;0.000;0.000;2022-09-06T19:00:10;101243.63;;;22.02;42.14
62976;BME280;49071;0.000;0.000;2022-09-06T19:03:12;101250.81;;;22.03;41.91
62976;BME280;49071;0.000;0.000;2022-09-06T19:06:13;101248.75;;;22.03;41.93
62976;BME280;49071;0.000;0.000;2022-09-06T19:09:15;101248.75;;;22.03;42.02
62976;BME280;49071;0.000;0.000;2022-09-06T19:12:15;101251.59;;;22.03;42.09
62976;BME280;49071;0.000;0.000;2022-09-06T19:15:16;101240.31;;;22.03;42.28
62976;BME280;49071;0.000;0.000;2022-09-06T19:18:16;101250.03;;;22.02;42.06
62976;BME280;49071;0.000;0.000;2022-09-06T19:21:19;101248.31;;;22.05;42.26
62976;BME280;49071;0.000;0.000;2022-09-06T19:24:21;101247.53;;;22.04;42.08
62976;BME280;49071;0.000;0.000;2022-09-06T19:27:21;101241.91;;;22.04;42.38
62976;BME280;49071;0.000;0.000;2022-09-06T19:30:21;101234.25;;;22.05;42.19
62976;BME280;49071;0.000;0.000;2022-09-06T19:33:22;101232.19;;;22.05;42.07
62976;BME280;49071;0.000;0.000;2022-09-06T19:36:23;101222.22;;;22.04;42.13
62976;BME280;49071;0.000;0.000;2022-09-06T19:39:24;101226.56;;;22.05;42.19
62976;BME280;49071;0.000;0.000;2022-09-06T19:42:27;101222.97;;;22.05;42.02
62976;BME280;49071;0.000;0.000;2022-09-06T19:45:28;101220.47;;;22.07;41.94
62976;BME280;49071;0.000;0.000;2022-09-06T19:48:28;101228.13;;;22.06;42.20
62976;BME280;49071;0.000;0.000;2022-09-06T19:51:30;101223.75;;;22.05;42.00
62976;BME280;49071;0.000;0.000;2022-09-06T19:54:31;101219.41;;;22.04;42.07
